Time;durP1;ratioP1;P1;durP2;ratioP2;P2;SDS_P1;SDS_P2;PMS_P1;PMS_P2;Temp;Humidity;BMP_temperature;BMP_pressure;BME280_temperature;BME280_humidity;BME280_pressure;Samples;Min_cycle;Max_cycle;Signal;HPM_P1;HPM_P2
2023/09/25 00:03:11;;;;;;;7.07;2.70;;;6.20;99.90;;;;;;8401669;28;20027;-79
2023/09/25 00:07:11;;;;;;;5.03;2.42;;;6.10;99.90;;;;;;8383040;28;20073;-79
2023/09/25 00:11:12;;;;;;;4.30;2.67;;;6.10;99.90;;;;;;8384798;28;20021;-80
2023/09/25 00:15:13;;;;;;;4.90;2.80;;;6.10;99.90;;;;;;8388965;28;20044;-79
2023/09/25 00:19:14;;;;;;;5.10;3.08;;;6.10;99.90;;;;;;8392720;28;20031;-81
2023/09/25 00:23:14;;;;;;;5.32;2.60;;;6.10;99.90;;;;;;8401185;28;20116;-79
2023/09/25 00:27:15;;;;;;;4.85;2.67;;;6.00;99.90;;;;;;8381418;28;20016;-78
2023/09/25 00:31:16;;;;;;;4.63;3.08;;;6.00;99.90;;;;;;8380514;28;20457;-79
2023/09/25 00:35:18;;;;;;;5.05;2.63;;;6.00;99.90;;;;;;8376427;28;20028;-80
2023/09/25 00:39:20;;;;;;;3.55;2.72;;;5.90;99.90;;;;;;8380172;28;20021;-80
2023/09/25 00:43:20;;;;;;;4.80;2.80;;;6.00;99.90;;;;;;8379567;28;20036;-79
2023/09/25 00:47:21;;;;;;;4.72;2.90;;;6.10;99.90;;;;;;8398426;28;20032;-79
2023/09/25 00:51:22;;;;;;;5.38;2.88;;;6.20;99.90;;;;;;8380269;28;20410;-80
2023/09/25 00:55:23;;;;;;;3.65;2.50;;;6.10;99.90;;;;;;8379897;28;20028;-79
2023/09/25 00:59:24;;;;;;;3.95;2.13;;;5.90;99.90;;;;;;8397921;28;20031;-79
2023/09/25 01:03:25;;;;;;;3.50;2.53;;;5.70;99.90;;;;;;8396823;28;20138;-79
2023/09/25 01:07:25;;;;;;;7.70;2.58;;;5.50;99.90;;;;;;8372727;28;20020;-77
2023/09/25 01:11:28;;;;;;;2.97;2.13;;;5.40;99.90;;;;;;8389965;28;20510;-79
2023/09/25 01:15:28;;;;;;;4.65;2.67;;;5.20;99.90;;;;;;8397101;28;20509;-80
2023/09/25 01:19:31;;;;;;;4.35;2.78;;;5.10;99.90;;;;;;8396202;28;20025;-79
2023/09/25 01:23:31;;;;;;;5.20;2.90;;;5.20;99.90;;;;;;8378286;28;20020;-79
2023/09/25 01:27:32;;;;;;;7.22;3.20;;;5.30;99.90;;;;;;8378330;28;20092;-79
2023/09/25 01:31:32;;;;;;;5.95;2.95;;;5.30;99.90;;;;;;8373589;28;20012;-79
2023/09/25 01:35:33;;;;;;;3.85;2.80;;;5.30;99.90;;;;;;8378437;28;20028;-79
2023/09/25 01:39:35;;;;;;;6.25;2.80;;;5.30;99.90;;;;;;8378944;28;20530;-79
2023/09/25 01:43:35;;;;;;;3.53;2.78;;;5.30;99.90;;;;;;8378308;28;20044;-77
2023/09/25 01:47:37;;;;;;;6.60;3.28;;;5.20;99.90;;;;;;8377982;28;20032;-79
2023/09/25 01:51:37;;;;;;;3.70;3.08;;;5.20;99.90;;;;;;8378520;28;20028;-78
2023/09/25 01:55:40;;;;;;;6.57;3.50;;;5.20;99.90;;;;;;8374377;28;20388;-79
2023/09/25 01:59:40;;;;;;;5.57;3.20;;;5.10;99.90;;;;;;8379561;28;20081;-80
2023/09/25 02:03:41;;;;;;;5.70;3.17;;;5.00;99.90;;;;;;8378280;28;20097;-79
2023/09/25 02:07:42;;;;;;;7.57;3.67;;;4.80;99.90;;;;;;8373629;28;20021;-79
2023/09/25 02:11:42;;;;;;;5.53;3.35;;;4.80;99.90;;;;;;8395575;28;20044;-79
2023/09/25 02:15:43;;;;;;;5.35;3.70;;;4.80;99.90;;;;;;8395382;28;20512;-79
2023/09/25 02:19:43;;;;;;;5.50;3.50;;;4.90;99.90;;;;;;8373527;28;20024;-79
2023/09/25 02:23:44;;;;;;;7.93;3.97;;;4.80;99.90;;;;;;8377548;28;20088;-77
2023/09/25 02:27:45;;;;;;;7.13;3.92;;;4.80;99.90;;;;;;8377778;28;20391;-79
2023/09/25 02:31:46;;;;;;;5.93;3.95;;;4.70;99.90;;;;;;8385178;28;20499;-79
2023/09/25 02:35:46;;;;;;;5.65;3.40;;;4.70;99.90;;;;;;8384694;28;20030;-79
2023/09/25 02:39:47;;;;;;;8.57;3.05;;;4.60;99.90;;;;;;8380524;28;20027;-79
2023/09/25 02:43:47;;;;;;;4.85;3.30;;;4.40;99.90;;;;;;8384086;28;20597;-79
2023/09/25 02:47:48;;;;;;;5.90;3.78;;;4.30;99.90;;;;;;8380344;28;20035;-79
2023/09/25 02:51:49;;;;;;;6.15;4.18;;;4.30;99.90;;;;;;8384636;28;20020;-78
2023/09/25 02:55:50;;;;;;;7.55;4.10;;;4.40;99.90;;;;;;8380793;28;20024;-78
2023/09/25 02:59:51;;;;;;;5.10;3.50;;;4.40;99.90;;;;;;8383597;28;20031;-78
2023/09/25 03:03:51;;;;;;;9.00;3.70;;;4.50;99.90;;;;;;8383644;28;20111;-79
2023/09/25 03:07:53;;;;;;;5.13;3.00;;;4.30;99.90;;;;;;8380776;28;20527;-79
2023/09/25 03:11:54;;;;;;;6.57;3.72;;;4.30;99.90;;;;;;8381098;28;20028;-79
2023/09/25 03:15:54;;;;;;;4.38;3.28;;;4.40;99.90;;;;;;8380591;28;20499;-79
2023/09/25 03:19:55;;;;;;;5.43;3.40;;;4.40;99.90;;;;;;8402058;28;20070;-79
2023/09/25 03:23:56;;;;;;;7.57;3.63;;;4.10;99.90;;;;;;8401717;28;20154;-79
2023/09/25 03:27:56;;;;;;;4.82;3.40;;;4.10;99.90;;;;;;8381578;28;20581;-79
2023/09/25 03:31:57;;;;;;;4.55;3.33;;;4.10;99.90;;;;;;8383961;28;20055;-79
2023/09/25 03:35:57;;;;;;;4.13;3.28;;;4.10;99.90;;;;;;8385699;28;20090;-78
2023/09/25 03:39:58;;;;;;;6.22;3.50;;;3.90;99.90;;;;;;8401499;28;20015;-79
2023/09/25 03:43:58;;;;;;;6.05;3.72;;;3.80;99.90;;;;;;8379826;28;20021;-79
2023/09/25 03:47:59;;;;;;;10.80;4.22;;;3.70;99.90;;;;;;8380588;28;20042;-79
2023/09/25 03:51:59;;;;;;;6.00;3.90;;;3.70;99.90;;;;;;8384469;28;20025;-78
2023/09/25 03:56:00;;;;;;;7.32;4.30;;;3.60;99.90;;;;;;8383539;28;20025;-79
2023/09/25 04:00:00;;;;;;;6.20;4.10;;;3.60;99.90;;;;;;8383856;28;20534;-79
2023/09/25 04:04:01;;;;;;;6.07;4.18;;;3.60;99.90;;;;;;8380611;28;20500;-79
2023/09/25 04:08:02;;;;;;;5.22;3.60;;;3.60;99.90;;;;;;8376599;28;20027;-78
2023/09/25 04:12:03;;;;;;;6.53;4.35;;;3.60;99.90;;;;;;8371406;28;20031;-79
2023/09/25 04:16:06;;;;;;;8.75;5.22;;;3.60;99.90;;;;;;8366913;28;20374;-79
2023/09/25 04:20:16;;;;;;;8.95;4.78;;;3.60;99.90;;;;;;8376386;28;20035;-79
2023/09/25 04:24:17;;;;;;;8.15;4.95;;;3.60;99.90;;;;;;8381282;28;20028;-79
2023/09/25 04:28:17;;;;;;;8.52;5.13;;;3.70;99.90;;;;;;8381872;28;20492;-78
2023/09/25 04:32:18;;;;;;;8.73;4.78;;;3.80;99.90;;;;;;8377372;28;20025;-79
2023/09/25 04:36:18;;;;;;;6.03;4.38;;;4.00;99.90;;;;;;8376938;28;20032;-79
2023/09/25 04:40:30;;;;;;;9.52;4.72;;;3.90;99.90;;;;;;8379488;28;20027;-78
2023/09/25 04:44:30;;;;;;;7.22;3.92;;;3.80;99.90;;;;;;8366714;28;20118;-78
2023/09/25 04:48:31;;;;;;;6.40;3.97;;;4.00;99.90;;;;;;8376903;28;20078;-79
2023/09/25 04:52:31;;;;;;;7.82;3.85;;;3.80;99.90;;;;;;8401568;28;20024;-80
2023/09/25 04:56:32;;;;;;;12.75;4.65;;;3.50;99.90;;;;;;8425691;28;20045;-77
2023/09/25 05:00:33;;;;;;;7.10;4.68;;;3.40;99.90;;;;;;8384534;28;20021;-78
2023/09/25 05:04:36;;;;;;;9.32;4.65;;;3.40;99.90;;;;;;8404011;28;20019;-79
2023/09/25 05:08:38;;;;;;;7.93;4.70;;;3.50;99.90;;;;;;8379229;28;20065;-79
2023/09/25 05:12:39;;;;;;;6.88;4.40;;;3.40;99.90;;;;;;8373751;28;20493;-79
2023/09/25 05:16:40;;;;;;;6.70;4.65;;;3.40;99.90;;;;;;8376936;28;20028;-79
2023/09/25 05:20:40;;;;;;;6.95;4.32;;;3.50;99.90;;;;;;8373084;28;20036;-79
2023/09/25 05:24:41;;;;;;;7.95;4.65;;;3.40;99.90;;;;;;8381156;28;20051;-79
2023/09/25 05:28:41;;;;;;;9.63;4.97;;;3.40;99.90;;;;;;8373232;28;20028;-79
2023/09/25 05:32:44;;;;;;;8.85;6.00;;;3.50;99.90;;;;;;8379691;28;20068;-79
2023/09/25 05:36:45;;;;;;;11.80;6.30;;;3.70;99.90;;;;;;8401409;28;20481;-78
2023/09/25 05:40:46;;;;;;;12.05;6.78;;;3.80;99.90;;;;;;8369875;28;20043;-79
2023/09/25 05:44:47;;;;;;;7.18;4.47;;;3.80;99.90;;;;;;8373394;28;20111;-79
2023/09/25 05:48:47;;;;;;;6.18;4.00;;;4.00;99.90;;;;;;8380088;28;20056;-79
2023/09/25 05:52:48;;;;;;;12.25;5.90;;;4.20;99.90;;;;;;8378651;28;20024;-77
2023/09/25 05:56:53;;;;;;;5.32;3.03;;;4.30;99.90;;;;;;8373813;28;20032;-79
2023/09/25 06:00:54;;;;;;;6.75;2.80;;;4.30;99.90;;;;;;8397025;28;20017;-79
2023/09/25 06:04:54;;;;;;;3.80;2.88;;;4.20;99.90;;;;;;8396601;28;20036;-78
2023/09/25 06:08:55;;;;;;;5.90;3.42;;;4.20;99.90;;;;;;8378780;28;20506;-79
2023/09/25 06:12:55;;;;;;;5.75;3.88;;;4.40;99.90;;;;;;8395967;28;20032;-79
2023/09/25 06:16:56;;;;;;;14.02;8.50;;;4.60;99.90;;;;;;8378486;28;20496;-78
2023/09/25 06:20:57;;;;;;;7.28;5.07;;;4.50;99.90;;;;;;8374074;28;20027;-80
2023/09/25 06:24:58;;;;;;;12.80;7.53;;;4.80;99.90;;;;;;8377273;28;20009;-79
2023/09/25 06:28:58;;;;;;;11.35;7.05;;;5.60;99.90;;;;;;8371615;28;20055;-78
2023/09/25 06:32:59;;;;;;;13.07;7.13;;;5.60;99.90;;;;;;8377765;28;20028;-78
2023/09/25 06:37:00;;;;;;;11.73;7.53;;;5.60;99.90;;;;;;8397014;28;20021;-79
2023/09/25 06:41:00;;;;;;;12.20;7.43;;;5.80;99.90;;;;;;8397015;28;20384;-79
2023/09/25 06:45:03;;;;;;;12.68;7.30;;;6.00;99.90;;;;;;8378820;28;20012;-79
2023/09/25 06:49:03;;;;;;;12.90;7.32;;;6.00;99.90;;;;;;8373548;28;20642;-79
2023/09/25 06:53:04;;;;;;;12.90;7.68;;;6.00;99.90;;;;;;8377608;28;20031;-79
2023/09/25 06:57:06;;;;;;;12.00;7.75;;;6.20;99.90;;;;;;8373721;28;20024;-79
2023/09/25 07:01:06;;;;;;;10.52;7.43;;;6.60;99.90;;;;;;8395272;28;20020;-79
2023/09/25 07:05:07;;;;;;;13.40;7.47;;;6.80;99.90;;;;;;8396294;28;20020;-82
2023/09/25 07:09:09;;;;;;;14.13;7.90;;;7.00;99.90;;;;;;8380638;28;20020;-81
2023/09/25 07:13:09;;;;;;;14.00;9.68;;;7.10;99.90;;;;;;8382411;28;20020;-81
2023/09/25 07:17:10;;;;;;;9.07;6.65;;;7.20;99.90;;;;;;8399638;28;20024;-81
2023/09/25 07:21:11;;;;;;;8.52;6.82;;;7.50;99.90;;;;;;8383187;28;20547;-81
2023/09/25 07:25:11;;;;;;;15.10;7.50;;;7.50;99.90;;;;;;8386599;28;20073;-81
2023/09/25 07:29:12;;;;;;;10.15;6.47;;;7.70;99.90;;;;;;8387207;28;20024;-80
2023/09/25 07:33:12;;;;;;;12.82;7.00;;;8.10;99.90;;;;;;8384618;28;20013;-81
2023/09/25 07:37:17;;;;;;;11.50;6.30;;;8.10;99.90;;;;;;8385389;28;20070;-80
2023/09/25 07:41:18;;;;;;;9.15;6.53;;;8.20;99.90;;;;;;8382183;28;20024;-80
2023/09/25 07:45:22;;;;;;;8.30;5.50;;;8.60;99.90;;;;;;8401871;28;20107;-80
2023/09/25 07:49:24;;;;;;;8.65;5.35;;;9.20;99.90;;;;;;8381498;28;20381;-82
2023/09/25 07:53:26;;;;;;;8.98;5.53;;;9.60;99.90;;;;;;8401049;28;20021;-81
2023/09/25 07:57:26;;;;;;;7.50;5.72;;;9.60;99.90;;;;;;8383471;28;20489;-81
2023/09/25 08:01:30;;;;;;;7.68;5.32;;;9.80;99.90;;;;;;8405216;28;20016;-80
2023/09/25 08:05:30;;;;;;;5.85;4.35;;;9.90;99.90;;;;;;8375609;28;20154;-83
2023/09/25 08:09:31;;;;;;;7.40;4.75;;;10.40;99.90;;;;;;8376088;28;20025;-82
2023/09/25 08:13:31;;;;;;;6.13;4.75;;;10.30;99.90;;;;;;8375270;28;20028;-82
2023/09/25 08:17:32;;;;;;;5.88;4.57;;;10.30;99.90;;;;;;8380359;28;20027;-82
2023/09/25 08:21:33;;;;;;;7.75;5.05;;;10.50;99.90;;;;;;8377600;28;20480;-82
2023/09/25 08:25:33;;;;;;;7.20;4.72;;;10.70;99.90;;;;;;8382972;28;20012;-82
2023/09/25 08:29:35;;;;;;;7.32;5.20;;;10.90;99.90;;;;;;8380736;28;20217;-83
2023/09/25 08:33:35;;;;;;;5.88;4.65;;;11.00;99.90;;;;;;8379124;28;20396;-80
2023/09/25 08:37:38;;;;;;;5.18;4.30;;;11.40;99.90;;;;;;8385348;28;20038;-80
2023/09/25 08:41:40;;;;;;;6.72;4.60;;;11.50;99.90;;;;;;8372591;28;20024;-82
2023/09/25 08:45:43;;;;;;;6.63;4.03;;;11.90;99.90;;;;;;8370894;28;20044;-82
2023/09/25 08:49:46;;;;;;;6.05;3.90;;;12.10;99.90;;;;;;8388753;28;20029;-82
2023/09/25 08:53:47;;;;;;;6.15;3.80;;;12.40;99.90;;;;;;8372759;28;20032;-81
2023/09/25 08:57:47;;;;;;;4.38;3.15;;;12.60;99.90;;;;;;8381129;28;20078;-82
2023/09/25 09:01:48;;;;;;;4.22;3.28;;;12.50;99.90;;;;;;8370969;28;20047;-82
2023/09/25 09:05:49;;;;;;;3.55;3.05;;;12.90;99.90;;;;;;8395328;28;20029;-83
2023/09/25 09:09:51;;;;;;;5.28;3.55;;;13.10;99.90;;;;;;8375204;28;20037;-83
2023/09/25 09:13:51;;;;;;;5.72;3.00;;;13.50;99.90;;;;;;8371983;28;20036;-83
2023/09/25 09:17:56;;;;;;;5.07;3.05;;;13.90;99.90;;;;;;8402171;28;20021;-83
2023/09/25 09:22:05;;;;;;;4.80;3.10;;;14.10;99.90;;;;;;8384727;28;20012;-83
2023/09/25 09:26:10;;;;;;;3.72;2.60;;;14.50;99.90;;;;;;8383766;28;20373;-83
2023/09/25 09:30:22;;;;;;;6.47;3.47;;;15.20;99.90;;;;;;8409644;28;20027;-84
2023/09/25 09:34:23;;;;;;;3.70;2.58;;;16.00;99.90;;;;;;8408737;28;20021;-83
2023/09/25 09:38:25;;;;;;;5.22;2.70;;;16.80;99.90;;;;;;8405499;28;20093;-83
2023/09/25 09:42:28;;;;;;;5.63;2.70;;;17.30;99.90;;;;;;8381683;28;20017;-82
2023/09/25 09:46:33;;;;;;;4.13;2.63;;;17.80;99.90;;;;;;8374829;28;20040;-82
2023/09/25 09:50:35;;;;;;;3.45;2.20;;;17.80;99.90;;;;;;8394206;28;20115;-84
2023/09/25 09:54:40;;;;;;;3.55;2.20;;;18.10;99.90;;;;;;8377175;28;20036;-82
2023/09/25 09:58:41;;;;;;;4.43;2.20;;;18.10;99.90;;;;;;8376528;28;20071;-83
2023/09/25 10:02:45;;;;;;;2.65;1.70;;;18.40;99.90;;;;;;8379716;28;20045;-84
2023/09/25 10:06:53;;;;;;;5.38;1.80;;;18.90;99.90;;;;;;8378943;28;20025;-84
2023/09/25 10:11:20;;;;;;;3.00;1.50;;;19.70;99.90;;;;;;8396910;28;20020;-84
2023/09/25 10:15:25;;;;;;;2.90;1.40;;;20.10;99.90;;;;;;8377749;28;20035;-83
2023/09/25 10:19:40;;;;;;;2.38;1.27;;;20.90;99.90;;;;;;8397416;28;20024;-82
2023/09/25 10:23:45;;;;;;;4.05;1.50;;;21.30;99.90;;;;;;8373289;28;20043;-85
2023/09/25 10:27:47;;;;;;;2.08;1.30;;;20.60;99.90;;;;;;8374479;28;20025;-84
2023/09/25 10:31:51;;;;;;;2.75;1.30;;;20.30;99.90;;;;;;8397413;28;20071;-84
2023/09/25 10:36:01;;;;;;;5.53;1.35;;;20.20;99.90;;;;;;8374939;28;20029;-83
2023/09/25 10:40:03;;;;;;;1.58;1.30;;;20.70;99.90;;;;;;8379219;28;20021;-84
2023/09/25 10:44:04;;;;;;;2.20;1.13;;;21.00;99.90;;;;;;8375756;28;20016;-82
2023/09/25 10:48:06;;;;;;;2.80;1.17;;;21.50;99.90;;;;;;8373359;28;20033;-80
2023/09/25 10:52:06;;;;;;;1.50;1.10;;;21.70;99.90;;;;;;8378878;28;20103;-80
2023/09/25 10:56:08;;;;;;;2.38;1.20;;;22.20;99.90;;;;;;8382954;28;20032;-82
2023/09/25 11:00:17;;;;;;;2.90;1.60;;;23.30;99.90;;;;;;8382672;28;20016;-81
2023/09/25 11:04:18;;;;;;;1.60;1.35;;;24.10;99.90;;;;;;8381502;28;20063;-81
2023/09/25 11:08:19;;;;;;;2.95;1.40;;;23.90;99.10;;;;;;8380686;28;20713;-82
2023/09/25 11:12:19;;;;;;;1.88;1.33;;;24.70;96.00;;;;;;8382115;28;20025;-81
2023/09/25 11:16:20;;;;;;;2.40;1.63;;;25.10;99.10;;;;;;8381701;28;20024;-82
2023/09/25 11:20:29;;;;;;;3.42;1.40;;;25.60;99.80;;;;;;8381811;28;20081;-81
2023/09/25 11:24:31;;;;;;;2.45;1.50;;;25.60;96.10;;;;;;8382145;28;20027;-84
2023/09/25 11:28:32;;;;;;;5.80;1.73;;;25.80;93.80;;;;;;8384508;28;20499;-84
2023/09/25 11:32:33;;;;;;;2.92;1.60;;;24.60;95.00;;;;;;8378375;28;20024;-84
2023/09/25 11:36:34;;;;;;;2.40;1.33;;;23.40;96.20;;;;;;8402074;28;20404;-84
2023/09/25 11:40:35;;;;;;;1.83;1.20;;;24.70;96.60;;;;;;8402427;28;20025;-83
2023/09/25 11:44:35;;;;;;;4.90;1.55;;;24.80;94.70;;;;;;8383228;28;20028;-84
2023/09/25 11:48:38;;;;;;;3.28;1.48;;;25.20;93.90;;;;;;8402869;28;20048;-83
2023/09/25 11:52:38;;;;;;;2.13;1.30;;;26.90;92.20;;;;;;8381765;28;20038;-84
2023/09/25 11:56:39;;;;;;;3.75;1.60;;;27.50;87.40;;;;;;8387033;28;20036;-84
2023/09/25 12:00:40;;;;;;;2.10;1.42;;;27.30;89.40;;;;;;8380284;28;20025;-84
2023/09/25 12:04:42;;;;;;;1.83;1.30;;;26.60;91.00;;;;;;8410398;28;20028;-83
2023/09/25 12:08:43;;;;;;;2.00;1.30;;;26.90;91.00;;;;;;8389958;28;20024;-83
2023/09/25 12:12:45;;;;;;;3.13;1.52;;;25.70;91.30;;;;;;8404639;28;20051;-83
2023/09/25 12:16:46;;;;;;;2.00;1.42;;;26.30;87.90;;;;;;8392693;28;20079;-83
2023/09/25 12:20:46;;;;;;;2.75;1.33;;;27.50;90.60;;;;;;8393339;28;20118;-83
2023/09/25 12:24:47;;;;;;;2.88;1.20;;;27.40;84.60;;;;;;8366813;28;20727;-81
2023/09/25 12:28:47;;;;;;;1.55;1.17;;;27.40;87.40;;;;;;8375675;28;20140;-81
2023/09/25 12:32:48;;;;;;;3.35;1.20;;;28.40;80.90;;;;;;8375437;28;20020;-80
2023/09/25 12:36:49;;;;;;;3.10;1.30;;;28.70;78.90;;;;;;8369390;28;20028;-80
2023/09/25 12:40:50;;;;;;;2.70;1.30;;;28.20;77.60;;;;;;8377796;28;20032;-80
2023/09/25 12:44:51;;;;;;;1.80;1.10;;;29.60;75.30;;;;;;8375592;28;20016;-81
2023/09/25 12:48:52;;;;;;;2.15;1.23;;;30.80;69.60;;;;;;8374328;28;20036;-80
2023/09/25 12:52:52;;;;;;;1.63;1.23;;;30.70;67.20;;;;;;8395626;28;20511;-82
2023/09/25 12:56:53;;;;;;;2.88;1.30;;;31.00;69.50;;;;;;8376975;28;20035;-81
2023/09/25 13:00:53;;;;;;;3.97;1.45;;;30.70;68.20;;;;;;8376514;28;20090;-79
2023/09/25 13:04:54;;;;;;;2.03;1.40;;;30.00;67.20;;;;;;8368453;28;20459;-81
2023/09/25 13:08:54;;;;;;;2.00;1.08;;;30.20;69.40;;;;;;8376653;28;20056;-80
2023/09/25 13:12:55;;;;;;;2.08;1.65;;;31.30;69.00;;;;;;8370692;28;20028;-80
2023/09/25 13:16:56;;;;;;;4.25;1.33;;;29.90;70.70;;;;;;8398472;28;20060;-81
2023/09/25 13:20:56;;;;;;;4.00;1.70;;;29.60;68.60;;;;;;8377677;28;20496;-80
2023/09/25 13:24:57;;;;;;;2.90;1.67;;;30.40;69.40;;;;;;8373926;28;20104;-81
2023/09/25 13:28:57;;;;;;;3.38;1.65;;;30.50;70.00;;;;;;8368441;28;20400;-80
2023/09/25 13:32:58;;;;;;;2.65;2.10;;;28.90;74.00;;;;;;8377208;28;20021;-81
2023/09/25 13:36:59;;;;;;;3.97;1.92;;;29.20;73.60;;;;;;8383552;28;20039;-80
2023/09/25 13:40:59;;;;;;;3.30;2.03;;;27.50;79.10;;;;;;8376983;28;20020;-81
2023/09/25 13:45:00;;;;;;;4.85;1.80;;;26.70;82.30;;;;;;8379237;28;20055;-81
2023/09/25 13:49:00;;;;;;;3.67;1.75;;;27.50;79.60;;;;;;8376606;28;20036;-81
2023/09/25 13:53:01;;;;;;;3.40;1.85;;;30.40;72.00;;;;;;8366968;28;20085;-81
2023/09/25 13:57:01;;;;;;;2.83;1.75;;;31.50;68.40;;;;;;8375486;28;20082;-80
2023/09/25 14:01:05;;;;;;;2.10;1.40;;;30.60;66.20;;;;;;8376091;28;20020;-81
2023/09/25 14:05:06;;;;;;;3.22;1.60;;;31.40;69.20;;;;;;8395533;28;20025;-79
2023/09/25 14:09:08;;;;;;;2.38;1.60;;;29.70;73.70;;;;;;8374262;28;20039;-81
2023/09/25 14:13:09;;;;;;;3.53;1.70;;;30.30;71.00;;;;;;8374754;28;20020;-80
2023/09/25 14:17:10;;;;;;;3.55;1.90;;;28.90;76.20;;;;;;8373532;28;20024;-81
2023/09/25 14:21:11;;;;;;;3.67;1.80;;;28.50;74.50;;;;;;8393343;28;20079;-81
2023/09/25 14:25:12;;;;;;;3.28;1.60;;;27.90;74.90;;;;;;8378139;28;20048;-81
2023/09/25 14:29:12;;;;;;;2.67;1.63;;;27.70;75.00;;;;;;8382049;28;20021;-81
2023/09/25 14:33:13;;;;;;;2.42;1.60;;;28.60;76.40;;;;;;8381486;28;20051;-81
2023/09/25 14:37:13;;;;;;;5.30;1.95;;;27.80;75.70;;;;;;8378486;28;20074;-81
2023/09/25 14:41:14;;;;;;;4.20;1.50;;;27.30;77.20;;;;;;8379206;28;20031;-81
2023/09/25 14:45:17;;;;;;;2.97;1.80;;;26.40;81.10;;;;;;8376981;28;20501;-80
2023/09/25 14:49:18;;;;;;;3.88;1.70;;;25.20;85.20;;;;;;8377798;28;20025;-80
2023/09/25 14:53:19;;;;;;;2.60;1.80;;;23.90;87.20;;;;;;8379315;28;20017;-81
2023/09/25 14:57:20;;;;;;;4.03;1.75;;;23.30;89.30;;;;;;8378919;28;20492;-79
2023/09/25 15:01:20;;;;;;;3.22;1.90;;;22.70;93.10;;;;;;8366368;28;20477;-81
2023/09/25 15:05:21;;;;;;;4.97;2.10;;;22.10;93.10;;;;;;8379103;28;20051;-82
2023/09/25 15:09:22;;;;;;;3.70;2.20;;;21.10;95.80;;;;;;8373985;28;20503;-82
2023/09/25 15:13:23;;;;;;;3.35;1.83;;;20.50;97.60;;;;;;8367074;28;20489;-79
2023/09/25 15:17:23;;;;;;;2.55;1.92;;;19.70;98.10;;;;;;8374218;28;20146;-81
2023/09/25 15:21:24;;;;;;;3.58;2.08;;;19.50;99.90;;;;;;8389912;28;20028;-82
2023/09/25 15:25:24;;;;;;;4.68;2.15;;;19.20;99.90;;;;;;8384782;28;20021;-81
2023/09/25 15:29:25;;;;;;;7.05;2.00;;;19.20;99.90;;;;;;8369086;28;20024;-80
2023/09/25 15:33:25;;;;;;;2.88;2.03;;;19.20;99.90;;;;;;8368644;28;20021;-81
2023/09/25 15:37:27;;;;;;;3.38;1.80;;;19.10;99.90;;;;;;8360078;28;20029;-81
2023/09/25 15:41:29;;;;;;;3.30;1.80;;;19.10;99.90;;;;;;8382782;28;20017;-80
2023/09/25 15:45:33;;;;;;;5.82;2.15;;;18.90;99.90;;;;;;8391494;28;20017;-79
2023/09/25 15:49:34;;;;;;;50.30;6.18;;;18.80;99.90;;;;;;8377635;28;20024;-81
2023/09/25 15:53:34;;;;;;;3.50;2.13;;;18.60;99.90;;;;;;8376519;28;20524;-81
2023/09/25 15:57:35;;;;;;;3.83;2.20;;;18.60;99.90;;;;;;8361227;28;20026;-81
2023/09/25 16:01:36;;;;;;;2.88;2.17;;;18.40;99.90;;;;;;8397580;28;20415;-79
2023/09/25 16:05:37;;;;;;;3.70;1.90;;;18.20;99.90;;;;;;8372539;28;20025;-81
2023/09/25 16:09:38;;;;;;;5.20;2.22;;;18.00;99.90;;;;;;8398458;28;20029;-80
2023/09/25 16:13:38;;;;;;;67.28;7.25;;;18.00;99.90;;;;;;8371565;28;20029;-80
2023/09/25 16:17:40;;;;;;;20.25;2.97;;;18.10;99.90;;;;;;8403505;28;20048;-79
2023/09/25 16:21:41;;;;;;;5.45;2.17;;;18.20;99.90;;;;;;8376776;28;20675;-80
2023/09/25 16:25:41;;;;;;;6.03;2.38;;;17.70;99.90;;;;;;8372999;28;20024;-80
2023/09/25 16:29:42;;;;;;;7.38;2.17;;;17.10;99.90;;;;;;8397868;28;20029;-80
2023/09/25 16:33:42;;;;;;;7.00;2.70;;;16.60;99.90;;;;;;8371188;28;20028;-80
2023/09/25 16:37:43;;;;;;;6.07;2.15;;;16.10;99.90;;;;;;8376019;28;20083;-80
2023/09/25 16:41:44;;;;;;;3.67;2.20;;;15.80;99.90;;;;;;8373318;28;20071;-81
2023/09/25 16:45:44;;;;;;;2.53;2.10;;;15.60;99.90;;;;;;8370617;28;20029;-80
2023/09/25 16:49:45;;;;;;;2.88;2.13;;;15.40;99.90;;;;;;8395456;28;20581;-81
2023/09/25 16:53:45;;;;;;;3.85;2.22;;;15.20;99.90;;;;;;8380627;28;20099;-80
2023/09/25 16:57:48;;;;;;;5.07;2.20;;;14.90;99.90;;;;;;8365411;28;20028;-79
2023/09/25 17:01:49;;;;;;;6.88;2.42;;;14.70;99.90;;;;;;8377522;28;20037;-79
2023/09/25 17:05:49;;;;;;;5.00;2.38;;;14.60;99.90;;;;;;8389396;28;20053;-80
2023/09/25 17:09:50;;;;;;;4.45;2.42;;;14.40;99.90;;;;;;8386446;28;20040;-78
2023/09/25 17:14:10;;;;;;;6.85;2.80;;;14.20;99.90;;;;;;8375340;28;20528;-85
2023/09/25 17:18:12;;;;;;;3.75;2.40;;;14.00;99.90;;;;;;8380313;28;20032;-85
2023/09/25 17:22:12;;;;;;;8.07;2.45;;;14.00;99.90;;;;;;8374715;28;20073;-80
2023/09/25 17:26:13;;;;;;;5.57;2.85;;;13.90;99.90;;;;;;8376049;28;20054;-79
2023/09/25 17:30:14;;;;;;;6.68;2.80;;;13.60;99.90;;;;;;8377176;28;20025;-80
2023/09/25 17:34:14;;;;;;;6.88;3.92;;;13.30;99.90;;;;;;8380007;28;20026;-80
2023/09/25 17:38:15;;;;;;;7.72;4.82;;;13.10;99.90;;;;;;8379676;28;20028;-80
2023/09/25 17:42:15;;;;;;;7.35;4.80;;;13.10;99.90;;;;;;8376514;28;20021;-81
2023/09/25 17:46:16;;;;;;;6.13;4.82;;;13.10;99.90;;;;;;8388416;28;20082;-80
2023/09/25 17:50:17;;;;;;;6.35;5.05;;;13.00;99.90;;;;;;8371105;28;20024;-80
2023/09/25 17:54:17;;;;;;;10.57;4.95;;;12.80;99.90;;;;;;8403336;28;20029;-79
2023/09/25 17:58:21;;;;;;;6.32;4.70;;;12.60;99.90;;;;;;8373509;28;20029;-80
2023/09/25 18:02:22;;;;;;;6.32;5.15;;;12.40;99.90;;;;;;8367765;28;20086;-80
2023/09/25 18:06:22;;;;;;;6.47;4.15;;;12.20;99.90;;;;;;8366790;28;20048;-82
2023/09/25 18:10:23;;;;;;;7.82;4.05;;;11.90;99.90;;;;;;8362876;28;20033;-80
2023/09/25 18:14:23;;;;;;;6.95;4.75;;;11.70;99.90;;;;;;8373754;28;20047;-82
2023/09/25 18:18:24;;;;;;;8.25;4.75;;;11.80;99.90;;;;;;8366705;28;20496;-81
2023/09/25 18:22:24;;;;;;;9.07;5.90;;;11.70;99.90;;;;;;8369987;28;20028;-80
2023/09/25 18:26:25;;;;;;;9.65;5.63;;;11.70;99.90;;;;;;8379085;28;20054;-80
2023/09/25 18:30:27;;;;;;;11.18;5.65;;;11.70;99.90;;;;;;8396158;28;20036;-81
2023/09/25 18:34:27;;;;;;;8.02;4.65;;;11.60;99.90;;;;;;8379325;28;20012;-80
2023/09/25 18:38:28;;;;;;;8.43;5.60;;;11.40;99.90;;;;;;8401912;28;20035;-80
2023/09/25 18:42:29;;;;;;;7.78;5.47;;;11.30;99.90;;;;;;8381913;28;20055;-80
2023/09/25 18:46:29;;;;;;;7.25;5.65;;;11.30;99.90;;;;;;8403729;28;20052;-80
2023/09/25 18:50:30;;;;;;;6.47;5.10;;;11.20;99.90;;;;;;8438497;28;20025;-81
2023/09/25 18:54:30;;;;;;;8.77;4.95;;;11.20;99.90;;;;;;8405977;28;20024;-79
2023/09/25 18:58:31;;;;;;;7.97;5.25;;;11.10;99.90;;;;;;8382034;28;20021;-80
2023/09/25 19:02:32;;;;;;;6.50;4.70;;;11.10;99.90;;;;;;8373351;28;20070;-80
2023/09/25 19:06:32;;;;;;;9.30;4.60;;;11.10;99.90;;;;;;8372945;28;20431;-81
2023/09/25 19:10:33;;;;;;;8.55;4.32;;;10.90;99.90;;;;;;8401631;28;20430;-81
2023/09/25 19:14:33;;;;;;;8.40;5.78;;;10.60;99.90;;;;;;8381533;28;20024;-81
2023/09/25 19:18:36;;;;;;;10.63;5.28;;;10.60;99.90;;;;;;8382407;28;20028;-80
2023/09/25 19:22:37;;;;;;;7.78;4.68;;;10.60;99.90;;;;;;8398460;28;20124;-80
2023/09/25 19:26:37;;;;;;;8.75;4.22;;;10.40;99.90;;;;;;8371648;28;20037;-80
2023/09/25 19:30:38;;;;;;;8.05;5.22;;;10.30;99.90;;;;;;8372457;28;20025;-80
2023/09/25 19:34:38;;;;;;;7.57;5.18;;;10.30;99.90;;;;;;8377993;28;20392;-77
2023/09/25 19:38:39;;;;;;;8.65;4.65;;;10.30;99.90;;;;;;8384630;28;20032;-80
2023/09/25 19:42:40;;;;;;;8.15;5.22;;;10.30;99.90;;;;;;8407047;28;20029;-80
2023/09/25 19:46:40;;;;;;;12.80;4.55;;;10.20;99.90;;;;;;8377939;28;20056;-79
2023/09/25 19:50:43;;;;;;;9.05;5.50;;;10.00;99.90;;;;;;8372413;28;20033;-80
2023/09/25 19:54:46;;;;;;;9.07;5.57;;;9.90;99.90;;;;;;8390118;28;20032;-80
2023/09/25 19:58:46;;;;;;;10.27;7.50;;;9.80;99.90;;;;;;8400630;28;20028;-82
2023/09/25 20:02:47;;;;;;;18.40;12.18;;;9.70;99.90;;;;;;8375540;28;20115;-79
2023/09/25 20:06:48;;;;;;;11.63;7.57;;;9.80;99.90;;;;;;8390681;28;20032;-80
2023/09/25 20:10:49;;;;;;;9.10;6.40;;;9.90;99.90;;;;;;8380365;28;20442;-80
2023/09/25 20:14:49;;;;;;;9.55;6.05;;;9.90;99.90;;;;;;8377708;28;20040;-81
2023/09/25 20:18:50;;;;;;;11.48;6.38;;;9.80;99.90;;;;;;8388440;28;20496;-80
2023/09/25 20:22:53;;;;;;;8.65;5.65;;;9.60;99.90;;;;;;8390155;28;20403;-80
2023/09/25 20:26:54;;;;;;;7.38;5.18;;;9.50;99.90;;;;;;8386082;28;20028;-80
2023/09/25 20:30:54;;;;;;;8.70;6.00;;;9.40;99.90;;;;;;8381079;28;20092;-79
2023/09/25 20:34:55;;;;;;;10.13;6.40;;;9.30;99.90;;;;;;8373694;28;20396;-80
2023/09/25 20:38:55;;;;;;;9.07;6.97;;;9.40;99.90;;;;;;8404560;28;20786;-80
2023/09/25 20:42:56;;;;;;;9.45;6.75;;;9.40;99.90;;;;;;8396523;28;20028;-79
2023/09/25 20:46:58;;;;;;;11.25;7.35;;;9.30;99.90;;;;;;8397199;28;20597;-79
2023/09/25 20:51:02;;;;;;;9.32;6.93;;;9.20;99.90;;;;;;8394830;28;20036;-79
2023/09/25 20:55:02;;;;;;;9.50;6.30;;;9.30;99.90;;;;;;8376491;28;20793;-77
2023/09/25 20:59:03;;;;;;;8.20;6.10;;;9.20;99.90;;;;;;8376708;28;20029;-79
2023/09/25 21:03:03;;;;;;;8.25;5.82;;;9.10;99.90;;;;;;8376589;28;20024;-79